< < Back
Terminal Aerodrome Forecast


Current Version              Previous Versions:   1  2  3  4  5  6  7  8  9  

Terminal Aerodrome Forecast

579
FTUS42 KCAE 301400 AAA
TAFCAE
TAF AMD
KCAE 301424Z 3014/3112 12004KT P6SM BKN025 BKN060
     FM301600 14006KT P6SM SCT040 BKN070=



Latest METAR

732
SAUS80 KWBC 301600
MTRCAE
METAR KCAE 301556Z 15007KT 10SM BKN033 31/21 A3018 RMK AO2 SLP214
T03110211


USA.gov is the U.S. government's official web portal to all federal, state and local government web resources and services.